createdAt,value
2022-12-20T00:00:05.145Z,20.95
2022-12-20T00:02:38.830Z,22.92
2022-12-20T00:05:05.821Z,22.48
2022-12-20T00:07:39.823Z,20.95
2022-12-20T00:10:07.102Z,21.83
2022-12-20T00:12:39.805Z,20.95
2022-12-20T00:15:06.832Z,21.38
2022-12-20T00:17:33.466Z,21.83
2022-12-20T00:20:06.748Z,21.20
2022-12-20T00:22:39.751Z,20.92
2022-12-20T00:25:13.724Z,21.08
2022-12-20T00:27:40.456Z,20.58
2022-12-20T00:30:13.816Z,19.30
2022-12-20T00:32:40.453Z,20.00
2022-12-20T00:35:07.491Z,19.25
2022-12-20T00:37:47.725Z,20.33
2022-12-20T00:43:00.718Z,19.20
2022-12-20T00:45:40.749Z,20.65
2022-12-20T00:48:07.376Z,20.20
2022-12-20T00:50:40.795Z,20.58
2022-12-20T00:53:09.878Z,18.95
2022-12-20T00:55:51.781Z,19.23
2022-12-20T00:58:18.436Z,19.85
2022-12-20T01:00:56.066Z,19.02
2022-12-20T01:03:23.635Z,18.98
2022-12-20T01:05:59.813Z,18.33
2022-12-20T01:08:28.812Z,19.73
2022-12-20T01:11:26.766Z,18.23
2022-12-20T01:13:56.067Z,17.92
2022-12-20T01:16:53.836Z,18.10
2022-12-20T01:19:40.741Z,18.25
2022-12-20T01:22:13.812Z,18.88
2022-12-20T01:24:40.406Z,18.63
2022-12-20T01:27:13.816Z,17.88
2022-12-20T01:29:40.423Z,18.33
2022-12-20T01:32:07.164Z,17.38
2022-12-20T01:34:40.816Z,16.90
2022-12-20T01:37:07.442Z,18.38
2022-12-20T01:39:34.051Z,17.52
2022-12-20T01:42:06.791Z,17.70
2022-12-20T01:44:33.474Z,18.55
2022-12-20T01:47:06.789Z,17.55
2022-12-20T01:49:43.598Z,17.50
2022-12-20T01:52:25.752Z,18.10
2022-12-20T01:55:07.092Z,18.38
2022-12-20T01:58:01.742Z,17.77
2022-12-20T02:00:35.916Z,18.73
2022-12-20T02:03:12.929Z,17.35
2022-12-20T02:05:49.741Z,17.33
2022-12-20T02:08:25.792Z,18.05
2022-12-20T02:11:08.890Z,17.73
2022-12-20T02:14:01.722Z,16.23
2022-12-20T02:16:40.835Z,17.02
2022-12-20T02:19:42.434Z,17.27
2022-12-20T02:23:01.714Z,16.88
2022-12-20T02:25:42.861Z,16.85
2022-12-20T02:28:26.724Z,16.63
2022-12-20T02:30:55.053Z,17.23
2022-12-20T02:33:31.803Z,18.27
2022-12-20T02:35:58.424Z,16.88
2022-12-20T02:38:40.799Z,16.60
2022-12-20T02:41:19.790Z,17.27
2022-12-20T02:44:16.721Z,16.33
2022-12-20T02:46:44.469Z,17.27
2022-12-20T02:49:22.723Z,17.35
2022-12-20T02:51:52.663Z,17.63
2022-12-20T02:54:26.798Z,17.30
2022-12-20T02:57:01.880Z,17.23
2022-12-20T02:59:49.706Z,17.10
2022-12-20T03:02:17.075Z,17.15
2022-12-20T03:04:50.827Z,17.23
2022-12-20T03:07:23.798Z,16.15
2022-12-20T03:09:50.406Z,17.20
2022-12-20T03:12:17.322Z,16.35
2022-12-20T03:14:50.805Z,17.48
2022-12-20T03:17:23.731Z,15.70
2022-12-20T03:20:03.768Z,16.77
2022-12-20T03:22:37.755Z,15.98
2022-12-20T03:25:11.781Z,16.45
2022-12-20T03:27:38.366Z,16.58
2022-12-20T03:30:06.268Z,15.70
2022-12-20T03:32:39.807Z,16.38
2022-12-20T03:35:07.260Z,16.05
2022-12-20T03:37:33.878Z,15.80
2022-12-20T03:40:06.794Z,15.32
2022-12-20T03:42:33.816Z,15.93
2022-12-20T03:45:06.783Z,15.95
2022-12-20T03:47:33.577Z,16.25
2022-12-20T03:50:00.199Z,14.98
2022-12-20T03:52:33.707Z,16.25
2022-12-20T03:55:00.776Z,16.42
2022-12-20T03:57:33.776Z,16.05
2022-12-20T04:00:06.769Z,17.35
2022-12-20T04:02:33.501Z,15.88
2022-12-20T04:05:06.773Z,16.40
2022-12-20T04:07:39.870Z,15.95
2022-12-20T04:10:07.753Z,16.70
2022-12-20T04:12:40.749Z,17.05
2022-12-20T04:15:08.126Z,16.25
2022-12-20T04:17:41.774Z,15.93
2022-12-20T04:20:19.584Z,15.85
2022-12-20T04:22:54.722Z,16.15
2022-12-20T04:25:22.155Z,15.63
2022-12-20T04:27:55.725Z,16.02
2022-12-20T04:30:22.722Z,15.80
2022-12-20T04:32:55.797Z,16.38
2022-12-20T04:35:22.503Z,16.58
2022-12-20T04:37:49.111Z,15.95
2022-12-20T04:40:22.737Z,16.05
2022-12-20T04:42:55.720Z,16.42
2022-12-20T04:45:22.311Z,16.13
2022-12-20T04:47:55.861Z,14.90
2022-12-20T04:50:22.588Z,16.77
2022-12-20T04:53:14.818Z,14.00
2022-12-20T04:55:41.501Z,15.45
2022-12-20T04:58:08.650Z,14.90
2022-12-20T05:00:41.713Z,14.13
2022-12-20T05:03:14.910Z,15.20
2022-12-20T05:05:47.780Z,14.77
2022-12-20T05:08:15.015Z,14.48
2022-12-20T05:10:48.715Z,15.27
2022-12-20T05:13:15.630Z,15.05
2022-12-20T05:15:49.755Z,15.05
2022-12-20T05:18:16.424Z,14.63
2022-12-20T05:21:16.729Z,15.52
2022-12-20T05:26:39.779Z,14.27
2022-12-20T05:29:06.827Z,15.82
2022-12-20T05:31:33.705Z,13.95
2022-12-20T05:34:06.719Z,16.35
2022-12-20T05:36:39.710Z,14.68
2022-12-20T05:39:06.306Z,14.88
2022-12-20T05:41:39.706Z,15.27
2022-12-20T05:44:07.258Z,14.77
2022-12-20T05:46:43.157Z,14.32
2022-12-20T05:49:09.877Z,14.10
2022-12-20T05:51:43.718Z,16.70
2022-12-20T05:54:11.280Z,15.63
2022-12-20T05:56:44.725Z,15.20
2022-12-20T05:59:11.386Z,14.45
2022-12-20T06:01:44.807Z,14.60
2022-12-20T06:04:11.504Z,14.15
2022-12-20T06:06:38.163Z,14.35
2022-12-20T06:09:11.755Z,14.70
2022-12-20T06:11:38.426Z,14.93
2022-12-20T06:14:11.788Z,15.10
2022-12-20T06:16:38.487Z,14.82
2022-12-20T06:19:21.669Z,14.93
2022-12-20T06:21:55.170Z,15.75
2022-12-20T06:24:31.726Z,14.57
2022-12-20T06:26:58.464Z,14.52
2022-12-20T06:29:31.701Z,14.95
2022-12-20T06:31:58.536Z,14.90
2022-12-20T06:34:31.775Z,16.25
2022-12-20T06:37:04.768Z,15.73
2022-12-20T06:39:37.715Z,15.45
2022-12-20T06:42:04.709Z,14.65
2022-12-20T06:44:37.779Z,16.20
2022-12-20T06:47:04.415Z,15.30
2022-12-20T06:49:37.785Z,15.32
2022-12-20T06:52:04.850Z,14.38
2022-12-20T06:54:31.498Z,15.18
2022-12-20T06:57:04.738Z,14.20
2022-12-20T06:59:37.749Z,14.70
2022-12-20T07:02:05.388Z,15.23
2022-12-20T07:04:39.797Z,15.43
2022-12-20T07:07:06.624Z,15.50
2022-12-20T07:09:33.373Z,13.93
2022-12-20T07:12:06.722Z,14.73
2022-12-20T07:14:33.368Z,14.15
2022-12-20T07:17:13.727Z,14.40
2022-12-20T07:19:53.780Z,15.45
2022-12-20T07:22:20.414Z,15.25
2022-12-20T07:24:54.726Z,14.80
2022-12-20T07:27:21.353Z,14.80
2022-12-20T07:29:54.727Z,15.27
2022-12-20T07:32:21.405Z,14.68
2022-12-20T07:34:54.777Z,15.18
2022-12-20T07:37:21.438Z,15.63
2022-12-20T07:39:54.766Z,14.95
2022-12-20T07:42:35.572Z,13.90
2022-12-20T07:45:05.001Z,15.90
2022-12-20T07:47:37.786Z,16.27
2022-12-20T07:50:11.786Z,16.65
2022-12-20T07:52:41.124Z,15.43
2022-12-20T07:55:15.799Z,15.45
2022-12-20T07:57:51.232Z,16.17
2022-12-20T08:00:25.759Z,15.82
2022-12-20T08:03:11.806Z,16.67
2022-12-20T08:05:50.723Z,16.50
2022-12-20T08:08:18.381Z,16.05
2022-12-20T08:10:52.711Z,17.17
2022-12-20T08:13:19.387Z,17.08
2022-12-20T08:15:52.797Z,16.13
2022-12-20T08:18:25.770Z,17.70
2022-12-20T08:20:59.119Z,17.55
2022-12-20T08:23:32.730Z,17.73
2022-12-20T08:26:02.412Z,17.27
2022-12-20T08:28:35.778Z,17.85
2022-12-20T08:31:04.382Z,17.25
2022-12-20T08:33:32.581Z,18.40
2022-12-20T08:36:12.724Z,18.55
2022-12-20T08:41:15.090Z,17.92
2022-12-20T08:43:48.761Z,18.52
2022-12-20T08:46:21.865Z,18.50
2022-12-20T08:48:48.502Z,17.23
2022-12-20T08:51:21.763Z,19.13
2022-12-20T08:53:48.391Z,18.90
2022-12-20T08:56:23.712Z,18.48
2022-12-20T08:58:56.775Z,17.63
2022-12-20T09:01:23.635Z,18.00
2022-12-20T09:03:56.901Z,18.58
2022-12-20T09:06:24.022Z,19.27
2022-12-20T09:08:50.706Z,20.25
2022-12-20T09:11:27.749Z,19.50
2022-12-20T09:14:02.773Z,19.00
2022-12-20T09:16:32.799Z,20.00
2022-12-20T09:19:08.772Z,19.58
2022-12-20T09:21:42.235Z,19.98
2022-12-20T09:24:16.750Z,19.27
2022-12-20T09:26:43.414Z,18.52
2022-12-20T09:29:25.867Z,20.75
2022-12-20T09:32:01.701Z,21.10
2022-12-20T09:34:28.367Z,20.33
2022-12-20T09:37:01.777Z,19.67
2022-12-20T09:39:34.772Z,17.83
2022-12-20T09:42:15.717Z,18.75
2022-12-20T09:44:49.779Z,18.88
2022-12-20T09:47:21.164Z,18.20
2022-12-20T09:49:57.712Z,17.88
2022-12-20T09:52:45.735Z,17.92
2022-12-20T09:55:46.940Z,17.98
2022-12-20T09:58:36.686Z,16.98
2022-12-20T10:01:25.152Z,17.88
2022-12-20T10:04:00.835Z,17.10
2022-12-20T10:06:51.405Z,17.52
2022-12-20T10:09:36.788Z,17.00
2022-12-20T10:12:29.409Z,18.55
2022-12-20T10:15:24.697Z,16.92
2022-12-20T10:18:12.691Z,18.02
2022-12-20T10:21:17.750Z,18.23
2022-12-20T10:24:15.770Z,18.30
2022-12-20T10:26:49.721Z,17.38
2022-12-20T10:29:16.788Z,17.98
2022-12-20T10:31:49.784Z,17.83
2022-12-20T10:34:16.492Z,17.70
2022-12-20T10:36:49.730Z,19.38
2022-12-20T10:39:16.383Z,16.73
2022-12-20T10:41:49.713Z,15.23
2022-12-20T10:44:19.176Z,16.70
2022-12-20T10:46:55.951Z,15.55
2022-12-20T10:49:32.089Z,15.98
2022-12-20T10:52:08.884Z,16.95
2022-12-20T10:54:49.754Z,16.58
2022-12-20T10:57:16.351Z,16.02
2022-12-20T10:59:48.047Z,15.60
2022-12-20T11:02:47.904Z,16.95
2022-12-20T11:05:20.781Z,16.10
2022-12-20T11:08:33.624Z,18.15
2022-12-20T11:10:48.705Z,16.63
2022-12-20T11:13:31.724Z,16.67
2022-12-20T11:16:01.609Z,16.17
2022-12-20T11:21:28.308Z,16.33
2022-12-20T11:24:39.846Z,14.60
2022-12-20T11:27:30.766Z,15.93
2022-12-20T11:30:19.409Z,14.30
2022-12-20T11:33:10.768Z,15.90
2022-12-20T11:35:52.464Z,16.40
2022-12-20T11:38:43.925Z,16.30
2022-12-20T11:41:25.510Z,16.42
2022-12-20T11:44:53.264Z,17.27
2022-12-20T11:47:49.756Z,16.33
2022-12-20T11:50:59.805Z,15.80
2022-12-20T11:53:43.917Z,16.73
2022-12-20T11:56:18.072Z,17.70
2022-12-20T11:59:22.713Z,16.48
2022-12-20T12:01:57.787Z,16.20
2022-12-20T12:04:37.696Z,15.35
2022-12-20T12:07:21.989Z,16.40
2022-12-20T12:10:06.803Z,15.63
2022-12-20T12:12:35.728Z,16.67
2022-12-20T12:15:05.388Z,15.50
2022-12-20T12:17:51.787Z,16.63
2022-12-20T12:20:47.720Z,15.70
2022-12-20T12:23:26.631Z,16.33
2022-12-20T12:26:00.760Z,15.68
2022-12-20T12:28:28.268Z,15.85
2022-12-20T12:30:59.528Z,16.63
2022-12-20T12:33:39.257Z,16.70
2022-12-20T12:36:24.248Z,16.23
2022-12-20T12:39:31.799Z,15.68
2022-12-20T12:42:31.108Z,17.65
2022-12-20T12:45:08.697Z,17.23
2022-12-20T12:47:41.694Z,15.65
2022-12-20T12:50:22.771Z,17.50
2022-12-20T12:52:59.714Z,17.23
2022-12-20T12:55:39.290Z,17.63
2022-12-20T12:58:41.486Z,18.63
2022-12-20T13:01:18.845Z,16.02
2022-12-20T13:03:54.886Z,17.17
2022-12-20T13:07:01.697Z,17.60
2022-12-20T13:09:34.703Z,17.52
2022-12-20T13:12:36.494Z,18.05
2022-12-20T13:15:27.714Z,16.48
2022-12-20T13:17:59.430Z,18.40
2022-12-20T13:20:41.785Z,18.05
2022-12-20T13:23:14.764Z,16.48
2022-12-20T13:25:55.773Z,17.02
2022-12-20T13:28:25.364Z,17.92
2022-12-20T13:31:07.820Z,16.67
2022-12-20T13:33:51.724Z,16.58
2022-12-20T13:36:44.771Z,17.30
2022-12-20T13:39:21.255Z,17.27
2022-12-20T13:42:37.768Z,17.02
2022-12-20T13:45:20.760Z,17.33
2022-12-20T13:48:05.169Z,17.90
2022-12-20T13:50:48.795Z,17.50
2022-12-20T13:53:24.209Z,18.25
2022-12-20T13:55:57.722Z,18.90
2022-12-20T13:58:37.757Z,17.60
2022-12-20T14:01:11.976Z,19.23
2022-12-20T14:03:52.944Z,18.45
2022-12-20T14:06:26.925Z,19.65
2022-12-20T14:09:06.859Z,18.23
2022-12-20T14:11:39.762Z,19.20
2022-12-20T14:14:13.964Z,18.08
2022-12-20T14:16:46.840Z,18.83
2022-12-20T14:19:14.730Z,18.58
2022-12-20T14:21:58.880Z,18.58
2022-12-20T14:24:31.809Z,18.73
2022-12-20T14:27:06.764Z,19.75
2022-12-20T14:29:33.545Z,19.35
2022-12-20T14:32:06.716Z,17.50
2022-12-20T14:34:41.341Z,19.70
2022-12-20T14:37:36.778Z,19.20
2022-12-20T14:40:09.489Z,19.00
2022-12-20T14:42:44.789Z,18.58
2022-12-20T14:45:20.812Z,17.80
2022-12-20T14:48:12.734Z,19.35
2022-12-20T14:50:49.707Z,18.83
2022-12-20T14:53:26.760Z,19.00
2022-12-20T14:55:53.457Z,19.52
2022-12-20T14:58:36.779Z,19.58
2022-12-20T15:01:21.058Z,19.30
2022-12-20T15:03:58.965Z,18.90
2022-12-20T15:06:42.225Z,20.10
2022-12-20T15:09:22.719Z,18.55
2022-12-20T15:11:57.770Z,18.17
2022-12-20T15:14:33.714Z,18.80
2022-12-20T15:17:06.690Z,19.70
2022-12-20T15:19:42.569Z,19.75
2022-12-20T15:22:24.805Z,18.40
2022-12-20T15:24:57.716Z,20.38
2022-12-20T15:27:30.718Z,19.83
2022-12-20T15:29:59.931Z,20.98
2022-12-20T15:32:35.707Z,19.00
2022-12-20T15:35:03.546Z,21.23
2022-12-20T15:37:30.192Z,19.45
2022-12-20T15:40:03.978Z,19.15
2022-12-20T15:42:30.751Z,20.73
2022-12-20T15:45:04.777Z,20.48
2022-12-20T15:47:31.388Z,18.85
2022-12-20T15:50:04.687Z,20.83
2022-12-20T15:52:31.803Z,19.55
2022-12-20T15:55:04.729Z,19.80
2022-12-20T15:57:31.358Z,19.45
2022-12-20T16:00:04.861Z,19.60
2022-12-20T16:02:39.894Z,18.85
2022-12-20T16:05:09.733Z,19.60
2022-12-20T16:07:42.695Z,21.63
2022-12-20T16:10:12.975Z,20.45
2022-12-20T16:12:39.713Z,19.38
2022-12-20T16:15:14.787Z,19.33
2022-12-20T16:17:41.390Z,20.90
2022-12-20T16:20:15.734Z,19.00
2022-12-20T16:22:55.772Z,19.95
2022-12-20T16:25:32.559Z,20.27
2022-12-20T16:28:05.769Z,20.90
2022-12-20T16:30:38.702Z,21.15
2022-12-20T16:33:06.535Z,19.58
2022-12-20T16:35:43.767Z,20.50
2022-12-20T16:38:10.400Z,19.52
2022-12-20T16:40:43.781Z,19.65
2022-12-20T16:43:15.457Z,18.48
2022-12-20T16:45:48.748Z,19.63
2022-12-20T16:48:15.344Z,21.10
2022-12-20T16:50:49.793Z,19.88
2022-12-20T16:53:16.501Z,21.05
2022-12-20T16:55:43.114Z,20.08
2022-12-20T16:58:16.791Z,20.02
2022-12-20T17:00:49.834Z,20.60
2022-12-20T17:03:22.894Z,19.85
2022-12-20T17:05:49.777Z,20.10
2022-12-20T17:11:07.719Z,19.95
2022-12-20T17:13:40.781Z,19.90
2022-12-20T17:16:10.105Z,20.40
2022-12-20T17:18:36.734Z,20.58
2022-12-20T17:21:28.827Z,21.63
2022-12-20T17:24:06.403Z,21.85
2022-12-20T17:26:40.764Z,20.42
2022-12-20T17:29:07.657Z,19.45
2022-12-20T17:31:40.695Z,21.45
2022-12-20T17:34:25.787Z,20.08
2022-12-20T17:37:01.806Z,19.88
2022-12-20T17:39:34.686Z,20.67
2022-12-20T17:42:07.754Z,21.83
2022-12-20T17:44:40.735Z,20.63
2022-12-20T17:47:07.513Z,20.02
2022-12-20T17:49:34.278Z,20.45
2022-12-20T17:52:07.750Z,20.25
2022-12-20T17:54:40.079Z,19.88
2022-12-20T17:57:22.750Z,20.42
2022-12-20T17:59:55.798Z,26.40
2022-12-20T18:02:25.339Z,20.73
2022-12-20T18:04:58.751Z,20.08
2022-12-20T18:07:31.819Z,21.40
2022-12-20T18:10:01.233Z,22.42
2022-12-20T18:12:37.589Z,20.08
2022-12-20T18:15:07.314Z,20.73
2022-12-20T18:17:33.981Z,19.85
2022-12-20T18:20:06.744Z,21.08
2022-12-20T18:22:47.752Z,22.02
2022-12-20T18:25:18.073Z,21.42
2022-12-20T18:27:51.751Z,20.05
2022-12-20T18:30:18.730Z,20.38
2022-12-20T18:32:51.682Z,21.58
2022-12-20T18:35:24.768Z,20.77
2022-12-20T18:37:57.733Z,20.55
2022-12-20T18:40:26.323Z,19.58
2022-12-20T18:43:04.242Z,21.15
2022-12-20T18:45:34.425Z,19.65
2022-12-20T18:48:07.753Z,21.33
2022-12-20T18:50:36.980Z,21.42
2022-12-20T18:53:03.677Z,20.23
2022-12-20T18:55:36.777Z,20.77
2022-12-20T18:58:03.743Z,20.75
2022-12-20T19:00:37.698Z,21.27
2022-12-20T19:03:10.940Z,20.45
2022-12-20T19:05:37.971Z,21.55
2022-12-20T19:08:11.707Z,21.15
2022-12-20T19:10:51.725Z,21.08
2022-12-20T19:13:32.767Z,20.20
2022-12-20T19:16:23.774Z,21.10
2022-12-20T19:19:04.830Z,21.80
2022-12-20T19:21:53.645Z,19.52
2022-12-20T19:24:33.750Z,20.23
2022-12-20T19:27:09.302Z,20.98
2022-12-20T19:29:42.755Z,21.08
2022-12-20T19:32:09.374Z,20.52
2022-12-20T19:34:35.985Z,20.42
2022-12-20T19:37:09.783Z,20.58
2022-12-20T19:39:36.518Z,20.67
2022-12-20T19:42:24.057Z,21.13
2022-12-20T19:44:57.751Z,21.00
2022-12-20T19:47:32.717Z,20.55
2022-12-20T19:50:00.908Z,20.48
2022-12-20T19:52:35.711Z,21.83
2022-12-20T19:55:02.321Z,20.98
2022-12-20T19:57:35.786Z,22.00
2022-12-20T20:00:02.523Z,22.05
2022-12-20T20:02:29.477Z,23.02
2022-12-20T20:05:02.790Z,22.35
2022-12-20T20:07:29.451Z,22.33
2022-12-20T20:10:02.768Z,22.08
2022-12-20T20:12:29.469Z,21.77
2022-12-20T20:14:56.166Z,22.63
2022-12-20T20:17:29.911Z,22.50
2022-12-20T20:19:56.578Z,22.30
2022-12-20T20:22:36.722Z,21.95
2022-12-20T20:25:03.460Z,20.27
2022-12-20T20:27:43.748Z,21.42
2022-12-20T20:30:20.760Z,22.15
2022-12-20T20:32:47.371Z,22.58
2022-12-20T20:35:14.123Z,22.08
2022-12-20T20:37:47.694Z,20.98
2022-12-20T20:40:15.500Z,23.30
2022-12-20T20:42:48.759Z,22.10
2022-12-20T20:45:22.705Z,21.60
2022-12-20T20:47:56.717Z,23.80
2022-12-20T20:50:31.707Z,21.25
2022-12-20T20:52:58.314Z,21.90
2022-12-20T20:55:25.048Z,22.15
2022-12-20T20:57:58.915Z,21.80
2022-12-20T21:00:25.746Z,20.98
2022-12-20T21:02:52.518Z,22.08
2022-12-20T21:08:12.346Z,21.85
2022-12-20T21:10:45.871Z,21.77
2022-12-20T21:13:18.746Z,21.35
2022-12-20T21:15:46.432Z,21.65
2022-12-20T21:18:13.849Z,20.58
2022-12-20T21:20:46.675Z,22.42
2022-12-20T21:23:26.752Z,21.23
2022-12-20T21:25:59.850Z,20.83
2022-12-20T21:28:39.685Z,20.42
2022-12-20T21:31:17.839Z,22.48
2022-12-20T21:33:51.761Z,22.42
2022-12-20T21:36:25.799Z,22.52
2022-12-20T21:39:02.683Z,21.55
2022-12-20T21:41:36.738Z,21.30
2022-12-20T21:44:03.484Z,21.50
2022-12-20T21:46:38.741Z,21.42
2022-12-20T21:49:05.371Z,20.92
2022-12-20T21:51:32.152Z,22.05
2022-12-20T21:54:07.670Z,20.67
2022-12-20T21:56:35.658Z,21.95
2022-12-20T21:59:10.680Z,21.85
2022-12-20T22:01:37.492Z,21.85
2022-12-20T22:04:12.814Z,21.50
2022-12-20T22:06:47.752Z,22.63
2022-12-20T22:09:15.230Z,21.65
2022-12-20T22:11:42.135Z,20.23
2022-12-20T22:14:18.748Z,21.30
2022-12-20T22:16:45.475Z,20.58
2022-12-20T22:19:22.725Z,20.52
2022-12-20T22:22:09.667Z,20.35
2022-12-20T22:24:43.678Z,20.42
2022-12-20T22:27:11.636Z,19.90
2022-12-20T22:29:44.759Z,20.60
2022-12-20T22:32:17.709Z,22.00
2022-12-20T22:34:50.699Z,21.20
2022-12-20T22:37:17.382Z,20.38
2022-12-20T22:39:50.689Z,21.38
2022-12-20T22:42:17.327Z,20.85
2022-12-20T22:44:50.717Z,20.50
2022-12-20T22:47:23.683Z,22.48
2022-12-20T22:49:56.709Z,19.92
2022-12-20T22:52:29.846Z,21.67
2022-12-20T22:54:56.589Z,20.60
2022-12-20T22:57:23.198Z,21.95
2022-12-20T22:59:56.734Z,21.55
2022-12-20T23:02:23.510Z,22.70
2022-12-20T23:04:50.800Z,21.73
2022-12-20T23:07:23.712Z,21.55
2022-12-20T23:09:50.320Z,22.33
2022-12-20T23:12:42.720Z,20.88
2022-12-20T23:15:31.099Z,19.70
2022-12-20T23:18:04.747Z,21.05
2022-12-20T23:21:09.742Z,22.13
2022-12-20T23:23:43.679Z,20.10
2022-12-20T23:26:21.896Z,21.17
2022-12-20T23:28:55.267Z,21.58
2022-12-20T23:31:21.953Z,21.38
2022-12-20T23:33:48.589Z,21.05
2022-12-20T23:36:21.690Z,20.70
2022-12-20T23:38:54.753Z,21.70
2022-12-20T23:41:21.407Z,22.85
2022-12-20T23:43:54.742Z,21.35
2022-12-20T23:46:24.501Z,21.77
2022-12-20T23:48:52.279Z,22.20
2022-12-20T23:51:31.803Z,21.65
2022-12-20T23:53:58.541Z,22.38
2022-12-20T23:56:25.700Z,23.00
2022-12-20T23:59:00.767Z,21.67
